WMT5VV LHBP-EDJA
Flight info
| Callsign | WMT5VV |
|---|---|
| Flight time | 1h 4m |
| Altitude | 36000 |
| Route | GILEP DCT ZOLKU DCT TEKNO DCT ABETI DCT LIMRA DCT NANIT DCT ERKIR L608 KPT KPT1D |
| Aircraft | A320/M-SDE1E2E3FGIJ1J4RWXY/LB1 |
Departure
| Time | 2026-05-05 07:35 |
|---|---|
| Airport | Budapest Liszt Ferenc International Airport (LHBP) |
Arrival
| Time | 2026-05-05 08:39 |
|---|---|
| Airport | Memmingen Allgau Airport (EDJA) |
| Time | Latitude | Longitude | Altitude | Speed | Heading |
|---|---|---|---|---|---|
| 2026-05-05 06:56 | 47.43447 | 19.26569 | 458 ft | 0 kts | 222° |
| 2026-05-05 07:25 | 47.43456 | 19.26581 | 458 ft | 4 kts | 224° |
| 2026-05-05 07:25 | 47.43475 | 19.26611 | 454 ft | 4 kts | 240° |
| 2026-05-05 07:25 | 47.43481 | 19.26642 | 458 ft | 4 kts | 292° |
| 2026-05-05 07:26 | 47.43478 | 19.26652 | 455 ft | 0 kts | 312° |
| 2026-05-05 07:29 | 47.43489 | 19.26634 | 456 ft | 6 kts | 312° |
| 2026-05-05 07:29 | 47.43530 | 19.26567 | 458 ft | 11 kts | 312° |
| 2026-05-05 07:30 | 47.43591 | 19.26470 | 458 ft | 16 kts | 312° |
| 2026-05-05 07:30 | 47.43733 | 19.26394 | 456 ft | 12 kts | 47° |
| 2026-05-05 07:30 | 47.43803 | 19.26398 | 458 ft | 12 kts | 310° |
| 2026-05-05 07:31 | 47.43866 | 19.26290 | 458 ft | 15 kts | 312° |
| 2026-05-05 07:31 | 47.43948 | 19.26208 | 458 ft | 15 kts | 4° |
| 2026-05-05 07:31 | 47.43998 | 19.26264 | 459 ft | 12 kts | 45° |
| 2026-05-05 07:31 | 47.44060 | 19.26380 | 466 ft | 8 kts | 68° |
| 2026-05-05 07:32 | 47.44065 | 19.26420 | 470 ft | 4 kts | 79° |
| 2026-05-05 07:32 | 47.44070 | 19.26460 | 471 ft | 4 kts | 80° |
| 2026-05-05 07:32 | 47.44064 | 19.26521 | 470 ft | 7 kts | 132° |
| 2026-05-05 07:32 | 47.44027 | 19.26590 | 470 ft | 3 kts | 133° |
| 2026-05-05 07:33 | 47.44026 | 19.26590 | 470 ft | 0 kts | 133° |
| 2026-05-05 07:33 | 47.44026 | 19.26591 | 470 ft | 0 kts | 133° |
| 2026-05-05 07:33 | 47.44025 | 19.26593 | 467 ft | 0 kts | 133° |
| 2026-05-05 07:34 | 47.43988 | 19.26652 | 470 ft | 35 kts | 133° |
| 2026-05-05 07:34 | 47.43619 | 19.27248 | 473 ft | 109 kts | 132° |
| 2026-05-05 07:34 | 47.42979 | 19.28272 | 468 ft | 160 kts | 135° |
| 2026-05-05 07:34 | 47.42236 | 19.29452 | 1016 ft | 161 kts | 137° |
| 2026-05-05 07:35 | 47.41375 | 19.30726 | 1779 ft | 163 kts | 140° |
| 2026-05-05 07:35 | 47.40610 | 19.31931 | 2218 ft | 184 kts | 136° |
| 2026-05-05 07:35 | 47.39638 | 19.33316 | 2592 ft | 203 kts | 154° |
| 2026-05-05 07:35 | 47.38158 | 19.33673 | 3031 ft | 223 kts | 192° |
| 2026-05-05 07:36 | 47.36816 | 19.32525 | 3599 ft | 246 kts | 224° |
| 2026-05-05 07:36 | 47.35658 | 19.30590 | 4614 ft | 253 kts | 230° |
| 2026-05-05 07:36 | 47.34898 | 19.28255 | 5660 ft | 263 kts | 255° |
| 2026-05-05 07:36 | 47.34903 | 19.25371 | 6790 ft | 271 kts | 274° |
| 2026-05-05 07:37 | 47.35184 | 19.22591 | 7797 ft | 275 kts | 275° |
| 2026-05-05 07:37 | 47.35486 | 19.19750 | 8773 ft | 280 kts | 275° |
| 2026-05-05 07:37 | 47.35786 | 19.16941 | 9720 ft | 286 kts | 275° |
| 2026-05-05 07:37 | 47.36118 | 19.13788 | 10411 ft | 303 kts | 275° |
| 2026-05-05 07:38 | 47.36344 | 19.11576 | 10677 ft | 319 kts | 275° |
| 2026-05-05 07:38 | 47.36784 | 19.07233 | 11630 ft | 331 kts | 275° |
| 2026-05-05 07:38 | 47.37135 | 19.03770 | 12552 ft | 335 kts | 275° |
| 2026-05-05 07:38 | 47.37367 | 19.01493 | 13171 ft | 338 kts | 275° |
| 2026-05-05 07:39 | 47.37833 | 18.96922 | 14315 ft | 343 kts | 275° |
| 2026-05-05 07:39 | 47.38184 | 18.93427 | 15118 ft | 347 kts | 275° |
| 2026-05-05 07:39 | 47.38547 | 18.89790 | 15931 ft | 351 kts | 275° |
| 2026-05-05 07:39 | 47.38793 | 18.87320 | 16472 ft | 354 kts | 275° |
| 2026-05-05 07:40 | 47.39262 | 18.82587 | 17505 ft | 359 kts | 276° |
| 2026-05-05 07:40 | 47.39502 | 18.80154 | 18015 ft | 362 kts | 276° |
| 2026-05-05 07:40 | 47.39990 | 18.75213 | 18974 ft | 367 kts | 276° |
| 2026-05-05 07:40 | 47.40361 | 18.71467 | 19694 ft | 370 kts | 276° |
| 2026-05-05 07:41 | 47.40733 | 18.67687 | 20455 ft | 374 kts | 276° |
| 2026-05-05 07:41 | 47.40980 | 18.65160 | 20951 ft | 376 kts | 276° |
| 2026-05-05 07:41 | 47.41358 | 18.61264 | 21674 ft | 380 kts | 276° |
| 2026-05-05 07:41 | 47.41912 | 18.57450 | 22407 ft | 383 kts | 284° |
| 2026-05-05 07:42 | 47.42693 | 18.53666 | 23118 ft | 387 kts | 285° |
| 2026-05-05 07:42 | 47.43475 | 18.49867 | 23861 ft | 388 kts | 285° |
| 2026-05-05 07:42 | 47.44260 | 18.46038 | 24473 ft | 391 kts | 285° |
| 2026-05-05 07:42 | 47.45046 | 18.42180 | 25065 ft | 394 kts | 285° |
| 2026-05-05 07:43 | 47.45837 | 18.38277 | 25674 ft | 397 kts | 285° |
| 2026-05-05 07:43 | 47.46643 | 18.34294 | 26274 ft | 402 kts | 285° |
| 2026-05-05 07:43 | 47.47449 | 18.30311 | 26828 ft | 407 kts | 285° |
| 2026-05-05 07:43 | 47.48260 | 18.26300 | 27447 ft | 408 kts | 284° |
| 2026-05-05 07:44 | 47.49040 | 18.22195 | 28072 ft | 411 kts | 284° |
| 2026-05-05 07:44 | 47.49747 | 18.18080 | 28681 ft | 413 kts | 281° |
| 2026-05-05 07:44 | 47.50412 | 18.13931 | 29225 ft | 417 kts | 281° |
| 2026-05-05 07:44 | 47.51067 | 18.09718 | 29693 ft | 422 kts | 281° |
| 2026-05-05 07:45 | 47.51726 | 18.05472 | 30178 ft | 426 kts | 281° |
| 2026-05-05 07:45 | 47.52402 | 18.01184 | 30596 ft | 430 kts | 282° |
| 2026-05-05 07:45 | 47.53101 | 17.96847 | 31094 ft | 431 kts | 282° |
| 2026-05-05 07:45 | 47.53812 | 17.92495 | 31537 ft | 433 kts | 281° |
| 2026-05-05 07:46 | 47.54521 | 17.88173 | 32132 ft | 431 kts | 281° |
| 2026-05-05 07:46 | 47.55227 | 17.83874 | 32728 ft | 430 kts | 282° |
| 2026-05-05 07:46 | 47.55929 | 17.79582 | 33303 ft | 428 kts | 282° |
| 2026-05-05 07:46 | 47.56638 | 17.75299 | 33823 ft | 429 kts | 282° |
| 2026-05-05 07:47 | 47.57358 | 17.71014 | 34356 ft | 427 kts | 282° |
| 2026-05-05 07:47 | 47.58076 | 17.66766 | 34912 ft | 425 kts | 282° |
| 2026-05-05 07:47 | 47.58791 | 17.62534 | 35478 ft | 422 kts | 282° |
| 2026-05-05 07:47 | 47.59501 | 17.58314 | 35847 ft | 422 kts | 282° |
| 2026-05-05 07:48 | 47.60899 | 17.49931 | 35937 ft | 416 kts | 282° |
| 2026-05-05 07:48 | 47.62268 | 17.41606 | 35934 ft | 415 kts | 282° |
| 2026-05-05 07:49 | 47.63525 | 17.33201 | 35927 ft | 414 kts | 280° |
| 2026-05-05 07:49 | 47.64633 | 17.24819 | 35922 ft | 414 kts | 279° |
| 2026-05-05 07:50 | 47.65731 | 17.16424 | 35915 ft | 415 kts | 279° |
| 2026-05-05 07:50 | 47.66862 | 17.08013 | 35921 ft | 415 kts | 279° |
| 2026-05-05 07:51 | 47.67981 | 16.99604 | 35926 ft | 415 kts | 278° |
| 2026-05-05 07:51 | 47.68903 | 16.91096 | 35923 ft | 415 kts | 276° |
| 2026-05-05 07:52 | 47.69704 | 16.82615 | 35924 ft | 415 kts | 276° |
| 2026-05-05 07:52 | 47.70514 | 16.74146 | 35922 ft | 414 kts | 276° |
| 2026-05-05 07:53 | 47.71357 | 16.65680 | 35915 ft | 415 kts | 277° |
| 2026-05-05 07:53 | 47.72211 | 16.57152 | 35918 ft | 414 kts | 277° |
| 2026-05-05 07:54 | 47.73043 | 16.48680 | 35908 ft | 414 kts | 277° |
| 2026-05-05 07:54 | 47.73871 | 16.40210 | 35907 ft | 415 kts | 277° |
| 2026-05-05 07:55 | 47.74692 | 16.31737 | 35900 ft | 414 kts | 276° |
| 2026-05-05 07:55 | 47.75507 | 16.23261 | 35897 ft | 414 kts | 276° |
| 2026-05-05 07:56 | 47.76308 | 16.14780 | 35899 ft | 415 kts | 276° |
| 2026-05-05 07:56 | 47.77108 | 16.06280 | 35894 ft | 416 kts | 276° |
| 2026-05-05 07:57 | 47.77904 | 15.97764 | 35894 ft | 416 kts | 276° |
| 2026-05-05 07:57 | 47.78697 | 15.89233 | 35896 ft | 417 kts | 276° |
| 2026-05-05 07:58 | 47.79488 | 15.80645 | 35900 ft | 417 kts | 276° |
| 2026-05-05 07:58 | 47.80267 | 15.72106 | 35911 ft | 416 kts | 276° |
| 2026-05-05 07:59 | 47.81040 | 15.63589 | 35916 ft | 415 kts | 276° |
| 2026-05-05 07:59 | 47.81797 | 15.55086 | 35916 ft | 414 kts | 276° |
| 2026-05-05 08:00 | 47.82554 | 15.46599 | 35909 ft | 414 kts | 276° |
| 2026-05-05 08:00 | 47.83304 | 15.38115 | 35911 ft | 413 kts | 276° |
| 2026-05-05 08:01 | 47.84045 | 15.29631 | 35910 ft | 413 kts | 276° |
| 2026-05-05 08:01 | 47.84789 | 15.21082 | 35906 ft | 414 kts | 276° |
| 2026-05-05 08:02 | 47.85519 | 15.12577 | 35898 ft | 414 kts | 276° |
| 2026-05-05 08:02 | 47.86242 | 15.04071 | 35898 ft | 414 kts | 276° |
| 2026-05-05 08:03 | 47.86956 | 14.95560 | 35895 ft | 414 kts | 275° |
| 2026-05-05 08:03 | 47.87660 | 14.87050 | 35909 ft | 414 kts | 275° |
| 2026-05-05 08:04 | 47.88372 | 14.78555 | 35906 ft | 413 kts | 276° |
| 2026-05-05 08:04 | 47.89080 | 14.70013 | 35907 ft | 412 kts | 275° |
| 2026-05-05 08:05 | 47.89764 | 14.61543 | 35899 ft | 412 kts | 275° |
| 2026-05-05 08:05 | 47.90436 | 14.53072 | 35897 ft | 412 kts | 275° |
| 2026-05-05 08:06 | 47.90722 | 14.45962 | 35908 ft | 409 kts | 264° |
| 2026-05-05 08:06 | 47.89448 | 14.37819 | 35902 ft | 407 kts | 250° |
| 2026-05-05 08:07 | 47.87564 | 14.29863 | 35901 ft | 407 kts | 250° |
| 2026-05-05 08:07 | 47.85674 | 14.21853 | 35899 ft | 407 kts | 250° |
| 2026-05-05 08:08 | 47.83800 | 14.13946 | 35894 ft | 407 kts | 250° |
| 2026-05-05 08:08 | 47.81896 | 14.05948 | 35893 ft | 408 kts | 250° |
| 2026-05-05 08:09 | 47.79989 | 13.97991 | 35900 ft | 408 kts | 250° |
| 2026-05-05 08:09 | 47.78082 | 13.90056 | 35890 ft | 408 kts | 249° |
| 2026-05-05 08:10 | 47.76162 | 13.82111 | 35885 ft | 408 kts | 249° |
| 2026-05-05 08:10 | 47.74241 | 13.74171 | 35891 ft | 409 kts | 249° |
| 2026-05-05 08:11 | 47.72315 | 13.66228 | 35893 ft | 409 kts | 249° |
| 2026-05-05 08:11 | 47.70374 | 13.58297 | 35900 ft | 408 kts | 249° |
| 2026-05-05 08:12 | 47.68424 | 13.50351 | 35902 ft | 408 kts | 249° |
| 2026-05-05 08:12 | 47.66489 | 13.42473 | 35910 ft | 408 kts | 249° |
| 2026-05-05 08:13 | 47.64548 | 13.34577 | 35899 ft | 407 kts | 249° |
| 2026-05-05 08:13 | 47.62591 | 13.26687 | 35893 ft | 407 kts | 249° |
| 2026-05-05 08:14 | 47.60640 | 13.18821 | 35902 ft | 407 kts | 249° |
| 2026-05-05 08:14 | 47.58680 | 13.10956 | 35875 ft | 406 kts | 249° |
| 2026-05-05 08:15 | 47.56712 | 13.03098 | 35897 ft | 407 kts | 248° |
| 2026-05-05 08:15 | 47.54726 | 12.95190 | 35899 ft | 407 kts | 249° |
| 2026-05-05 08:16 | 47.52752 | 12.87347 | 35885 ft | 407 kts | 248° |
| 2026-05-05 08:16 | 47.50786 | 12.79549 | 35887 ft | 407 kts | 248° |
| 2026-05-05 08:17 | 47.48786 | 12.71671 | 35888 ft | 406 kts | 248° |
| 2026-05-05 08:17 | 47.46796 | 12.63851 | 35905 ft | 406 kts | 248° |
| 2026-05-05 08:18 | 47.44802 | 12.56037 | 35917 ft | 406 kts | 248° |
| 2026-05-05 08:18 | 47.42803 | 12.48249 | 35905 ft | 405 kts | 248° |
| 2026-05-05 08:19 | 47.41053 | 12.40342 | 35904 ft | 407 kts | 259° |
| 2026-05-05 08:19 | 47.40868 | 12.36197 | 35905 ft | 410 kts | 270° |
| 2026-05-05 08:19 | 47.41292 | 12.31974 | 35880 ft | 415 kts | 283° |
| 2026-05-05 08:20 | 47.42193 | 12.27784 | 34937 ft | 425 kts | 285° |
| 2026-05-05 08:20 | 47.43183 | 12.23429 | 34203 ft | 429 kts | 286° |
| 2026-05-05 08:20 | 47.44159 | 12.19263 | 33994 ft | 419 kts | 286° |
| 2026-05-05 08:20 | 47.45103 | 12.15262 | 33480 ft | 417 kts | 286° |
| 2026-05-05 08:21 | 47.46052 | 12.11229 | 33015 ft | 412 kts | 286° |
| 2026-05-05 08:21 | 47.46986 | 12.07222 | 32535 ft | 408 kts | 286° |
| 2026-05-05 08:21 | 47.47903 | 12.03252 | 32069 ft | 404 kts | 285° |
| 2026-05-05 08:21 | 47.48812 | 11.99298 | 31613 ft | 399 kts | 285° |
| 2026-05-05 08:22 | 47.49721 | 11.95338 | 31151 ft | 395 kts | 285° |
| 2026-05-05 08:22 | 47.50727 | 11.91538 | 30338 ft | 399 kts | 294° |
| 2026-05-05 08:22 | 47.52020 | 11.87907 | 29194 ft | 398 kts | 295° |
| 2026-05-05 08:22 | 47.52895 | 11.85490 | 28403 ft | 396 kts | 295° |
| 2026-05-05 08:23 | 47.54645 | 11.80685 | 26910 ft | 393 kts | 295° |
| 2026-05-05 08:23 | 47.55945 | 11.77122 | 25872 ft | 391 kts | 295° |
| 2026-05-05 08:23 | 47.57228 | 11.73599 | 25009 ft | 386 kts | 295° |
| 2026-05-05 08:23 | 47.58481 | 11.70136 | 24167 ft | 382 kts | 296° |
| 2026-05-05 08:24 | 47.59724 | 11.66680 | 23291 ft | 378 kts | 296° |
| 2026-05-05 08:24 | 47.60546 | 11.64389 | 22660 ft | 376 kts | 296° |
| 2026-05-05 08:24 | 47.62165 | 11.59858 | 21397 ft | 370 kts | 295° |
| 2026-05-05 08:24 | 47.63364 | 11.56502 | 20495 ft | 366 kts | 295° |
| 2026-05-05 08:25 | 47.64544 | 11.53196 | 19893 ft | 355 kts | 295° |
| 2026-05-05 08:25 | 47.65677 | 11.50029 | 19479 ft | 341 kts | 295° |
| 2026-05-05 08:25 | 47.66417 | 11.47959 | 19201 ft | 333 kts | 295° |
| 2026-05-05 08:25 | 47.67483 | 11.44972 | 18788 ft | 322 kts | 295° |
| 2026-05-05 08:26 | 47.68516 | 11.42070 | 18407 ft | 317 kts | 295° |
| 2026-05-05 08:26 | 47.69545 | 11.39161 | 17980 ft | 320 kts | 295° |
| 2026-05-05 08:26 | 47.70578 | 11.36234 | 17556 ft | 320 kts | 295° |
| 2026-05-05 08:26 | 47.71613 | 11.33306 | 17155 ft | 320 kts | 295° |
| 2026-05-05 08:27 | 47.72648 | 11.30387 | 16762 ft | 319 kts | 295° |
| 2026-05-05 08:27 | 47.73692 | 11.27443 | 16358 ft | 320 kts | 295° |
| 2026-05-05 08:27 | 47.74718 | 11.24543 | 15965 ft | 319 kts | 295° |
| 2026-05-05 08:27 | 47.75819 | 11.21416 | 15541 ft | 319 kts | 295° |
| 2026-05-05 08:28 | 47.76772 | 11.18705 | 15175 ft | 319 kts | 295° |
| 2026-05-05 08:28 | 47.77802 | 11.15772 | 14783 ft | 319 kts | 295° |
| 2026-05-05 08:28 | 47.78833 | 11.12837 | 14385 ft | 319 kts | 295° |
| 2026-05-05 08:28 | 47.79857 | 11.09933 | 13988 ft | 319 kts | 295° |
| 2026-05-05 08:29 | 47.80885 | 11.07006 | 13575 ft | 319 kts | 295° |
| 2026-05-05 08:29 | 47.81907 | 11.04090 | 13173 ft | 318 kts | 295° |
| 2026-05-05 08:29 | 47.82926 | 11.01176 | 12769 ft | 316 kts | 295° |
| 2026-05-05 08:30 | 47.85142 | 10.95302 | 11777 ft | 320 kts | 301° |
| 2026-05-05 08:30 | 47.86395 | 10.92568 | 11344 ft | 320 kts | 303° |
| 2026-05-05 08:30 | 47.87681 | 10.89837 | 10927 ft | 318 kts | 303° |
| 2026-05-05 08:30 | 47.88908 | 10.87253 | 10545 ft | 317 kts | 303° |
| 2026-05-05 08:31 | 47.90142 | 10.84657 | 10368 ft | 308 kts | 303° |
| 2026-05-05 08:31 | 47.91358 | 10.82089 | 10161 ft | 300 kts | 303° |
| 2026-05-05 08:31 | 47.92549 | 10.79560 | 9857 ft | 297 kts | 303° |
| 2026-05-05 08:31 | 47.93728 | 10.77040 | 9505 ft | 296 kts | 303° |
| 2026-05-05 08:32 | 47.94950 | 10.74419 | 9111 ft | 294 kts | 303° |
| 2026-05-05 08:32 | 47.96123 | 10.71897 | 8662 ft | 290 kts | 303° |
| 2026-05-05 08:32 | 47.97409 | 10.69132 | 7911 ft | 288 kts | 303° |
| 2026-05-05 08:32 | 47.98419 | 10.66966 | 7454 ft | 283 kts | 303° |
| 2026-05-05 08:33 | 47.99512 | 10.64623 | 7083 ft | 273 kts | 303° |
| 2026-05-05 08:33 | 48.00577 | 10.62338 | 6726 ft | 263 kts | 303° |
| 2026-05-05 08:33 | 48.01607 | 10.60124 | 6385 ft | 257 kts | 304° |
| 2026-05-05 08:33 | 48.02619 | 10.57938 | 6041 ft | 257 kts | 304° |
| 2026-05-05 08:34 | 48.03645 | 10.55720 | 5693 ft | 260 kts | 304° |
| 2026-05-05 08:34 | 48.04676 | 10.53493 | 5346 ft | 261 kts | 304° |
| 2026-05-05 08:34 | 48.05710 | 10.51254 | 5041 ft | 260 kts | 304° |
| 2026-05-05 08:34 | 48.06694 | 10.48737 | 4911 ft | 251 kts | 289° |
| 2026-05-05 08:35 | 48.07001 | 10.46400 | 4848 ft | 240 kts | 270° |
| 2026-05-05 08:35 | 48.06726 | 10.43978 | 4755 ft | 230 kts | 248° |
| 2026-05-05 08:35 | 48.05991 | 10.41914 | 4588 ft | 224 kts | 239° |
| 2026-05-05 08:35 | 48.05207 | 10.39941 | 4329 ft | 214 kts | 239° |
| 2026-05-05 08:36 | 48.04459 | 10.38051 | 4028 ft | 201 kts | 239° |
| 2026-05-05 08:36 | 48.03779 | 10.36330 | 3802 ft | 176 kts | 239° |
| 2026-05-05 08:36 | 48.03197 | 10.34856 | 3560 ft | 154 kts | 239° |
| 2026-05-05 08:36 | 48.02680 | 10.33548 | 3384 ft | 145 kts | 239° |
| 2026-05-05 08:37 | 48.02164 | 10.32242 | 3173 ft | 142 kts | 240° |
| 2026-05-05 08:37 | 48.01658 | 10.30963 | 2997 ft | 141 kts | 240° |
| 2026-05-05 08:37 | 48.01163 | 10.29720 | 2804 ft | 139 kts | 239° |
| 2026-05-05 08:37 | 48.00670 | 10.28459 | 2592 ft | 137 kts | 238° |
| 2026-05-05 08:38 | 48.00189 | 10.27241 | 2413 ft | 135 kts | 239° |
| 2026-05-05 08:38 | 47.99697 | 10.25996 | 2202 ft | 134 kts | 239° |
| 2026-05-05 08:38 | 47.99324 | 10.25065 | 2079 ft | 132 kts | 239° |
| 2026-05-05 08:38 | 47.98918 | 10.24046 | 2072 ft | 87 kts | 239° |
| 2026-05-05 08:39 | 47.98692 | 10.23477 | 2080 ft | 43 kts | 239° |
| 2026-05-05 08:39 | 47.98565 | 10.23159 | 2080 ft | 27 kts | 240° |
| 2026-05-05 08:39 | 47.98593 | 10.23055 | 2079 ft | 13 kts | 344° |
| 2026-05-05 08:39 | 47.98695 | 10.22989 | 2078 ft | 15 kts | 334° |
| 2026-05-05 08:40 | 47.98749 | 10.22969 | 2078 ft | 6 kts | 30° |
| 2026-05-05 08:40 | 47.98769 | 10.23036 | 2079 ft | 9 kts | 72° |
| 2026-05-05 08:40 | 47.98790 | 10.23128 | 2079 ft | 8 kts | 70° |
| 2026-05-05 08:40 | 47.98810 | 10.23212 | 2079 ft | 8 kts | 70° |
| 2026-05-05 08:41 | 47.98843 | 10.23284 | 2081 ft | 9 kts | 22° |
| 2026-05-05 08:41 | 47.98880 | 10.23309 | 2080 ft | 2 kts | 39° |
| 2026-05-05 08:41 | 47.98889 | 10.23327 | 2078 ft | 0 kts | 51° |